sensor_id;sensor_type;location;lat;lon;timestamp;P1;durP1;ratioP1;P2;durP2;ratioP2
18881;SDS011;9573;50.948;11.600;2022-12-04T05:22:39;144.53;;;30.67;;
18881;SDS011;9573;50.948;11.600;2022-12-04T05:25:07;146.17;;;32.87;;
18881;SDS011;9573;50.948;11.600;2022-12-04T05:27:35;146.93;;;34.33;;
18881;SDS011;9573;50.948;11.600;2022-12-04T05:30:02;134.77;;;31.53;;
18881;SDS011;9573;50.948;11.600;2022-12-04T05:32:31;127.77;;;30.53;;
18881;SDS011;9573;50.948;11.600;2022-12-04T05:34:58;133.37;;;30.73;;
18881;SDS011;9573;50.948;11.600;2022-12-04T05:37:25;131.17;;;30.17;;
18881;SDS011;9573;50.948;11.600;2022-12-04T05:39:54;114.60;;;29.30;;
18881;SDS011;9573;50.948;11.600;2022-12-04T05:42:21;123.00;;;29.67;;
18881;SDS011;9573;50.948;11.600;2022-12-04T05:44:48;118.93;;;29.77;;
18881;SDS011;9573;50.948;11.600;2022-12-04T05:47:15;107.60;;;27.37;;
18881;SDS011;9573;50.948;11.600;2022-12-04T05:49:42;110.57;;;30.07;;
18881;SDS011;9573;50.948;11.600;2022-12-04T05:52:09;113.07;;;28.93;;
18881;SDS011;9573;50.948;11.600;2022-12-04T05:54:36;123.50;;;32.17;;
18881;SDS011;9573;50.948;11.600;2022-12-04T05:57:05;115.67;;;32.57;;
18881;SDS011;9573;50.948;11.600;2022-12-04T05:59:32;119.47;;;31.13;;
18881;SDS011;9573;50.948;11.600;2022-12-04T06:02:00;113.63;;;28.87;;
18881;SDS011;9573;50.948;11.600;2022-12-04T06:04:27;112.60;;;28.77;;
18881;SDS011;9573;50.948;11.600;2022-12-04T06:06:54;114.37;;;31.80;;
18881;SDS011;9573;50.948;11.600;2022-12-04T06:09:21;110.23;;;30.33;;
18881;SDS011;9573;50.948;11.600;2022-12-04T06:11:48;115.33;;;30.63;;
18881;SDS011;9573;50.948;11.600;2022-12-04T06:14:17;117.23;;;29.40;;
18881;SDS011;9573;50.948;11.600;2022-12-04T06:16:45;116.13;;;30.53;;
18881;SDS011;9573;50.948;11.600;2022-12-04T06:19:13;115.33;;;30.70;;
18881;SDS011;9573;50.948;11.600;2022-12-04T06:21:44;125.07;;;32.20;;
18881;SDS011;9573;50.948;11.600;2022-12-04T06:24:14;105.50;;;29.70;;
18881;SDS011;9573;50.948;11.600;2022-12-04T06:26:43;114.70;;;29.77;;
18881;SDS011;9573;50.948;11.600;2022-12-04T06:29:11;111.93;;;28.50;;
18881;SDS011;9573;50.948;11.600;2022-12-04T06:31:41;104.60;;;28.57;;
18881;SDS011;9573;50.948;11.600;2022-12-04T06:34:09;116.47;;;30.50;;
18881;SDS011;9573;50.948;11.600;2022-12-04T06:36:37;106.73;;;29.70;;
18881;SDS011;9573;50.948;11.600;2022-12-04T06:39:04;114.10;;;29.33;;
18881;SDS011;9573;50.948;11.600;2022-12-04T06:41:31;120.30;;;30.70;;
18881;SDS011;9573;50.948;11.600;2022-12-04T06:43:58;107.13;;;28.97;;
18881;SDS011;9573;50.948;11.600;2022-12-04T06:46:25;118.77;;;30.30;;
18881;SDS011;9573;50.948;11.600;2022-12-04T06:48:57;116.53;;;30.80;;
18881;SDS011;9573;50.948;11.600;2022-12-04T06:51:27;115.17;;;30.67;;
18881;SDS011;9573;50.948;11.600;2022-12-04T06:53:56;111.00;;;30.87;;
18881;SDS011;9573;50.948;11.600;2022-12-04T06:56:24;124.90;;;34.83;;
18881;SDS011;9573;50.948;11.600;2022-12-04T06:58:56;113.30;;;28.97;;
18881;SDS011;9573;50.948;11.600;2022-12-04T07:01:26;113.73;;;28.93;;
18881;SDS011;9573;50.948;11.600;2022-12-04T07:03:57;125.07;;;30.37;;
18881;SDS011;9573;50.948;11.600;2022-12-04T07:06:28;111.27;;;30.30;;
18881;SDS011;9573;50.948;11.600;2022-12-04T07:08:58;106.73;;;30.67;;
18881;SDS011;9573;50.948;11.600;2022-12-04T07:11:28;124.40;;;30.87;;
18881;SDS011;9573;50.948;11.600;2022-12-04T07:13:56;115.97;;;28.93;;
18881;SDS011;9573;50.948;11.600;2022-12-04T07:16:24;113.67;;;30.20;;
18881;SDS011;9573;50.948;11.600;2022-12-04T07:18:53;118.93;;;31.23;;
18881;SDS011;9573;50.948;11.600;2022-12-04T07:21:23;123.07;;;31.13;;
18881;SDS011;9573;50.948;11.600;2022-12-04T07:23:53;117.80;;;30.87;;
18881;SDS011;9573;50.948;11.600;2022-12-04T07:26:23;121.70;;;30.13;;
18881;SDS011;9573;50.948;11.600;2022-12-04T07:28:52;115.13;;;30.80;;
18881;SDS011;9573;50.948;11.600;2022-12-04T07:31:21;112.23;;;29.13;;
18881;SDS011;9573;50.948;11.600;2022-12-04T07:33:50;109.00;;;30.97;;
18881;SDS011;9573;50.948;11.600;2022-12-04T07:36:19;119.00;;;30.77;;
18881;SDS011;9573;50.948;11.600;2022-12-04T07:38:49;136.07;;;33.13;;
18881;SDS011;9573;50.948;11.600;2022-12-04T07:41:17;108.13;;;32.10;;
18881;SDS011;9573;50.948;11.600;2022-12-04T07:43:44;113.43;;;30.97;;
18881;SDS011;9573;50.948;11.600;2022-12-04T07:46:13;116.33;;;30.73;;
18881;SDS011;9573;50.948;11.600;2022-12-04T07:48:42;119.17;;;31.67;;
18881;SDS011;9573;50.948;11.600;2022-12-04T07:51:10;123.77;;;33.30;;
18881;SDS011;9573;50.948;11.600;2022-12-04T07:53:39;122.57;;;30.43;;
18881;SDS011;9573;50.948;11.600;2022-12-04T07:56:09;124.83;;;31.97;;
18881;SDS011;9573;50.948;11.600;2022-12-04T07:58:37;109.70;;;31.30;;
18881;SDS011;9573;50.948;11.600;2022-12-04T08:01:06;122.37;;;32.57;;
18881;SDS011;9573;50.948;11.600;2022-12-04T08:03:35;113.57;;;30.77;;
18881;SDS011;9573;50.948;11.600;2022-12-04T08:06:03;123.83;;;30.77;;
18881;SDS011;9573;50.948;11.600;2022-12-04T08:08:32;128.80;;;33.13;;
18881;SDS011;9573;50.948;11.600;2022-12-04T08:11:03;123.50;;;30.63;;
18881;SDS011;9573;50.948;11.600;2022-12-04T08:13:33;112.87;;;31.30;;
18881;SDS011;9573;50.948;11.600;2022-12-04T08:16:00;114.00;;;31.73;;
18881;SDS011;9573;50.948;11.600;2022-12-04T08:18:28;131.47;;;32.77;;
18881;SDS011;9573;50.948;11.600;2022-12-04T08:21:01;133.53;;;33.57;;
18881;SDS011;9573;50.948;11.600;2022-12-04T08:23:30;113.53;;;31.73;;
18881;SDS011;9573;50.948;11.600;2022-12-04T08:25:57;120.00;;;31.33;;
18881;SDS011;9573;50.948;11.600;2022-12-04T08:28:25;124.77;;;33.87;;
18881;SDS011;9573;50.948;11.600;2022-12-04T08:30:54;120.20;;;31.63;;
18881;SDS011;9573;50.948;11.600;2022-12-04T08:33:27;133.47;;;32.40;;
18881;SDS011;9573;50.948;11.600;2022-12-04T08:35:54;118.47;;;32.17;;
18881;SDS011;9573;50.948;11.600;2022-12-04T08:38:21;131.80;;;32.27;;
18881;SDS011;9573;50.948;11.600;2022-12-04T08:40:49;123.07;;;30.23;;
18881;SDS011;9573;50.948;11.600;2022-12-04T08:43:17;125.87;;;33.03;;
18881;SDS011;9573;50.948;11.600;2022-12-04T08:45:44;132.10;;;32.70;;
18881;SDS011;9573;50.948;11.600;2022-12-04T08:48:23;122.83;;;32.03;;
18881;SDS011;9573;50.948;11.600;2022-12-04T08:50:51;120.10;;;31.60;;
18881;SDS011;9573;50.948;11.600;2022-12-04T08:53:19;118.67;;;29.53;;
18881;SDS011;9573;50.948;11.600;2022-12-04T08:55:46;118.73;;;32.43;;
18881;SDS011;9573;50.948;11.600;2022-12-04T08:58:13;131.07;;;31.63;;
18881;SDS011;9573;50.948;11.600;2022-12-04T09:00:41;123.97;;;32.87;;
18881;SDS011;9573;50.948;11.600;2022-12-04T09:03:11;123.20;;;30.37;;
18881;SDS011;9573;50.948;11.600;2022-12-04T09:05:41;129.90;;;34.67;;
18881;SDS011;9573;50.948;11.600;2022-12-04T09:08:09;132.97;;;35.30;;
18881;SDS011;9573;50.948;11.600;2022-12-04T09:10:37;129.47;;;33.00;;
18881;SDS011;9573;50.948;11.600;2022-12-04T09:13:05;136.50;;;33.00;;
18881;SDS011;9573;50.948;11.600;2022-12-04T09:15:33;125.90;;;34.07;;
18881;SDS011;9573;50.948;11.600;2022-12-04T09:18:04;128.83;;;32.60;;
18881;SDS011;9573;50.948;11.600;2022-12-04T09:20:34;129.37;;;30.87;;
18881;SDS011;9573;50.948;11.600;2022-12-04T09:23:02;137.83;;;34.03;;
18881;SDS011;9573;50.948;11.600;2022-12-04T09:25:29;127.60;;;32.13;;
18881;SDS011;9573;50.948;11.600;2022-12-04T09:27:57;123.53;;;33.67;;
18881;SDS011;9573;50.948;11.600;2022-12-04T09:30:24;129.60;;;31.80;;
18881;SDS011;9573;50.948;11.600;2022-12-04T09:32:51;126.40;;;31.17;;
18881;SDS011;9573;50.948;11.600;2022-12-04T09:35:18;133.67;;;33.37;;
18881;SDS011;9573;50.948;11.600;2022-12-04T09:37:47;133.43;;;33.17;;
18881;SDS011;9573;50.948;11.600;2022-12-04T09:40:18;120.70;;;32.30;;
18881;SDS011;9573;50.948;11.600;2022-12-04T09:42:53;119.70;;;32.23;;
18881;SDS011;9573;50.948;11.600;2022-12-04T09:45:28;127.37;;;32.90;;
18881;SDS011;9573;50.948;11.600;2022-12-04T09:48:04;125.87;;;32.10;;
18881;SDS011;9573;50.948;11.600;2022-12-04T09:50:38;142.50;;;34.93;;
18881;SDS011;9573;50.948;11.600;2022-12-04T09:53:10;124.17;;;33.67;;
18881;SDS011;9573;50.948;11.600;2022-12-04T09:55:42;140.83;;;35.80;;
18881;SDS011;9573;50.948;11.600;2022-12-04T09:58:17;135.03;;;33.83;;
18881;SDS011;9573;50.948;11.600;2022-12-04T10:00:50;139.13;;;33.20;;
18881;SDS011;9573;50.948;11.600;2022-12-04T10:03:19;131.30;;;35.03;;
18881;SDS011;9573;50.948;11.600;2022-12-04T10:05:52;118.57;;;32.90;;
18881;SDS011;9573;50.948;11.600;2022-12-04T10:08:27;136.43;;;34.23;;
18881;SDS011;9573;50.948;11.600;2022-12-04T10:11:01;121.03;;;33.87;;
18881;SDS011;9573;50.948;11.600;2022-12-04T10:13:49;118.80;;;32.40;;
18881;SDS011;9573;50.948;11.600;2022-12-04T10:16:31;134.40;;;32.83;;
18881;SDS011;9573;50.948;11.600;2022-12-04T10:19:12;128.00;;;34.10;;
18881;SDS011;9573;50.948;11.600;2022-12-04T10:21:52;134.80;;;33.90;;
18881;SDS011;9573;50.948;11.600;2022-12-04T10:24:35;132.20;;;35.23;;
18881;SDS011;9573;50.948;11.600;2022-12-04T10:27:08;123.77;;;35.30;;
18881;SDS011;9573;50.948;11.600;2022-12-04T10:29:38;136.23;;;35.13;;
18881;SDS011;9573;50.948;11.600;2022-12-04T10:32:14;131.33;;;34.83;;
18881;SDS011;9573;50.948;11.600;2022-12-04T10:34:45;133.83;;;36.23;;
18881;SDS011;9573;50.948;11.600;2022-12-04T10:37:16;141.27;;;33.93;;
18881;SDS011;9573;50.948;11.600;2022-12-04T10:39:47;122.10;;;33.93;;
18881;SDS011;9573;50.948;11.600;2022-12-04T10:42:28;122.80;;;33.53;;
18881;SDS011;9573;50.948;11.600;2022-12-04T10:45:02;126.47;;;33.37;;
18881;SDS011;9573;50.948;11.600;2022-12-04T10:47:31;129.10;;;33.37;;
18881;SDS011;9573;50.948;11.600;2022-12-04T10:49:59;122.93;;;33.87;;
18881;SDS011;9573;50.948;11.600;2022-12-04T10:52:31;124.13;;;33.73;;
18881;SDS011;9573;50.948;11.600;2022-12-04T10:54:59;129.23;;;34.27;;
18881;SDS011;9573;50.948;11.600;2022-12-04T10:57:34;123.53;;;33.53;;
18881;SDS011;9573;50.948;11.600;2022-12-04T11:00:21;136.27;;;35.23;;
18881;SDS011;9573;50.948;11.600;2022-12-04T11:02:53;118.33;;;33.30;;
18881;SDS011;9573;50.948;11.600;2022-12-04T11:05:23;133.43;;;35.07;;
18881;SDS011;9573;50.948;11.600;2022-12-04T11:07:55;134.73;;;35.80;;
18881;SDS011;9573;50.948;11.600;2022-12-04T11:10:27;121.10;;;34.80;;
18881;SDS011;9573;50.948;11.600;2022-12-04T11:13:00;129.33;;;35.63;;
18881;SDS011;9573;50.948;11.600;2022-12-04T11:15:29;136.70;;;35.67;;
18881;SDS011;9573;50.948;11.600;2022-12-04T11:18:07;144.30;;;37.20;;
18881;SDS011;9573;50.948;11.600;2022-12-04T11:20:38;125.80;;;35.10;;
18881;SDS011;9573;50.948;11.600;2022-12-04T11:23:15;117.30;;;32.97;;
18881;SDS011;9573;50.948;11.600;2022-12-04T11:25:45;124.53;;;33.70;;
18881;SDS011;9573;50.948;11.600;2022-12-04T11:28:15;130.53;;;35.53;;
18881;SDS011;9573;50.948;11.600;2022-12-04T11:30:46;128.93;;;33.43;;
18881;SDS011;9573;50.948;11.600;2022-12-04T11:33:17;121.30;;;34.00;;
18881;SDS011;9573;50.948;11.600;2022-12-04T11:35:50;119.83;;;33.60;;
18881;SDS011;9573;50.948;11.600;2022-12-04T11:38:21;127.20;;;33.53;;
18881;SDS011;9573;50.948;11.600;2022-12-04T11:40:54;130.60;;;36.20;;
18881;SDS011;9573;50.948;11.600;2022-12-04T11:43:24;123.63;;;34.73;;
18881;SDS011;9573;50.948;11.600;2022-12-04T11:45:55;125.50;;;34.50;;
18881;SDS011;9573;50.948;11.600;2022-12-04T11:48:24;121.37;;;34.73;;
18881;SDS011;9573;50.948;11.600;2022-12-04T11:50:53;128.10;;;36.53;;
18881;SDS011;9573;50.948;11.600;2022-12-04T11:53:34;125.93;;;31.27;;
18881;SDS011;9573;50.948;11.600;2022-12-04T11:59:06;131.30;;;35.07;;
18881;SDS011;9573;50.948;11.600;2022-12-04T12:02:23;130.73;;;34.53;;
18881;SDS011;9573;50.948;11.600;2022-12-04T12:05:17;135.50;;;35.57;;
18881;SDS011;9573;50.948;11.600;2022-12-04T12:08:08;130.27;;;34.87;;
18881;SDS011;9573;50.948;11.600;2022-12-04T12:10:47;133.77;;;35.53;;
18881;SDS011;9573;50.948;11.600;2022-12-04T12:13:26;154.00;;;38.23;;
18881;SDS011;9573;50.948;11.600;2022-12-04T12:16:04;153.10;;;38.40;;
18881;SDS011;9573;50.948;11.600;2022-12-04T12:18:45;149.77;;;36.83;;
18881;SDS011;9573;50.948;11.600;2022-12-04T12:21:32;130.43;;;33.20;;
18881;SDS011;9573;50.948;11.600;2022-12-04T12:24:09;149.33;;;36.07;;
18881;SDS011;9573;50.948;11.600;2022-12-04T12:26:53;155.67;;;37.40;;
18881;SDS011;9573;50.948;11.600;2022-12-04T12:29:37;163.67;;;36.33;;
18881;SDS011;9573;50.948;11.600;2022-12-04T12:32:22;145.50;;;35.63;;
18881;SDS011;9573;50.948;11.600;2022-12-04T12:35:12;155.47;;;35.67;;
18881;SDS011;9573;50.948;11.600;2022-12-04T12:37:46;143.53;;;35.33;;
18881;SDS011;9573;50.948;11.600;2022-12-04T12:40:22;140.57;;;36.37;;
18881;SDS011;9573;50.948;11.600;2022-12-04T12:42:59;147.07;;;36.10;;
18881;SDS011;9573;50.948;11.600;2022-12-04T12:45:34;166.47;;;41.63;;
18881;SDS011;9573;50.948;11.600;2022-12-04T12:48:15;144.70;;;37.43;;
18881;SDS011;9573;50.948;11.600;2022-12-04T12:50:53;157.23;;;39.03;;
18881;SDS011;9573;50.948;11.600;2022-12-04T12:53:28;152.10;;;37.80;;
18881;SDS011;9573;50.948;11.600;2022-12-04T12:56:02;138.33;;;36.23;;
18881;SDS011;9573;50.948;11.600;2022-12-04T12:58:35;157.33;;;37.87;;
18881;SDS011;9573;50.948;11.600;2022-12-04T13:01:12;150.50;;;36.10;;
18881;SDS011;9573;50.948;11.600;2022-12-04T13:03:48;179.23;;;40.70;;
18881;SDS011;9573;50.948;11.600;2022-12-04T13:06:23;153.73;;;38.57;;
18881;SDS011;9573;50.948;11.600;2022-12-04T13:08:59;146.37;;;37.43;;
18881;SDS011;9573;50.948;11.600;2022-12-04T13:11:32;160.13;;;37.47;;
18881;SDS011;9573;50.948;11.600;2022-12-04T13:14:00;147.60;;;36.93;;
18881;SDS011;9573;50.948;11.600;2022-12-04T13:16:32;150.03;;;38.17;;
18881;SDS011;9573;50.948;11.600;2022-12-04T13:19:05;152.90;;;36.47;;
18881;SDS011;9573;50.948;11.600;2022-12-04T13:21:40;165.13;;;36.70;;
18881;SDS011;9573;50.948;11.600;2022-12-04T13:27:20;140.33;;;35.97;;
18881;SDS011;9573;50.948;11.600;2022-12-04T13:30:03;156.23;;;36.87;;
18881;SDS011;9573;50.948;11.600;2022-12-04T13:32:52;144.00;;;36.33;;
18881;SDS011;9573;50.948;11.600;2022-12-04T13:35:59;147.60;;;35.30;;
18881;SDS011;9573;50.948;11.600;2022-12-04T13:38:42;143.93;;;35.70;;
18881;SDS011;9573;50.948;11.600;2022-12-04T13:41:25;137.50;;;34.73;;
18881;SDS011;9573;50.948;11.600;2022-12-04T13:43:54;146.13;;;36.57;;
18881;SDS011;9573;50.948;11.600;2022-12-04T13:46:24;139.30;;;34.90;;
18881;SDS011;9573;50.948;11.600;2022-12-04T13:49:07;142.10;;;33.30;;
18881;SDS011;9573;50.948;11.600;2022-12-04T13:51:46;162.33;;;39.70;;
18881;SDS011;9573;50.948;11.600;2022-12-04T13:57:15;161.83;;;36.83;;
18881;SDS011;9573;50.948;11.600;2022-12-04T13:59:46;145.57;;;36.43;;
18881;SDS011;9573;50.948;11.600;2022-12-04T14:02:25;157.40;;;40.70;;
18881;SDS011;9573;50.948;11.600;2022-12-04T14:04:58;160.67;;;37.00;;
18881;SDS011;9573;50.948;11.600;2022-12-04T14:07:28;164.43;;;38.07;;
18881;SDS011;9573;50.948;11.600;2022-12-04T14:09:59;155.93;;;35.87;;
18881;SDS011;9573;50.948;11.600;2022-12-04T14:12:30;143.50;;;36.43;;
18881;SDS011;9573;50.948;11.600;2022-12-04T14:15:03;140.90;;;36.93;;
18881;SDS011;9573;50.948;11.600;2022-12-04T14:17:33;149.93;;;35.20;;
18881;SDS011;9573;50.948;11.600;2022-12-04T14:20:05;141.80;;;35.07;;
18881;SDS011;9573;50.948;11.600;2022-12-04T14:23:09;147.57;;;37.17;;
18881;SDS011;9573;50.948;11.600;2022-12-04T14:25:51;142.37;;;35.27;;
18881;SDS011;9573;50.948;11.600;2022-12-04T14:28:22;128.43;;;33.87;;
18881;SDS011;9573;50.948;11.600;2022-12-04T14:30:57;141.73;;;35.27;;
18881;SDS011;9573;50.948;11.600;2022-12-04T14:33:38;163.67;;;37.63;;
18881;SDS011;9573;50.948;11.600;2022-12-04T14:36:15;174.50;;;38.57;;
18881;SDS011;9573;50.948;11.600;2022-12-04T14:38:49;176.00;;;38.93;;
18881;SDS011;9573;50.948;11.600;2022-12-04T14:41:27;155.40;;;38.47;;
18881;SDS011;9573;50.948;11.600;2022-12-04T14:43:55;149.37;;;37.30;;
18881;SDS011;9573;50.948;11.600;2022-12-04T14:46:25;167.10;;;40.40;;
18881;SDS011;9573;50.948;11.600;2022-12-04T14:49:05;152.97;;;38.20;;
18881;SDS011;9573;50.948;11.600;2022-12-04T14:51:48;142.10;;;37.50;;
18881;SDS011;9573;50.948;11.600;2022-12-04T14:54:25;160.10;;;37.23;;
18881;SDS011;9573;50.948;11.600;2022-12-04T14:57:03;162.23;;;37.60;;
18881;SDS011;9573;50.948;11.600;2022-12-04T14:59:52;156.60;;;37.83;;
18881;SDS011;9573;50.948;11.600;2022-12-04T15:02:20;172.43;;;39.07;;
18881;SDS011;9573;50.948;11.600;2022-12-04T15:05:00;156.37;;;37.63;;
18881;SDS011;9573;50.948;11.600;2022-12-04T15:07:30;149.03;;;35.57;;
18881;SDS011;9573;50.948;11.600;2022-12-04T15:09:59;175.73;;;39.67;;
18881;SDS011;9573;50.948;11.600;2022-12-04T15:12:47;173.37;;;40.23;;
18881;SDS011;9573;50.948;11.600;2022-12-04T15:15:17;177.10;;;37.33;;
18881;SDS011;9573;50.948;11.600;2022-12-04T15:17:56;158.23;;;36.20;;
18881;SDS011;9573;50.948;11.600;2022-12-04T15:20:24;159.30;;;36.30;;
18881;SDS011;9573;50.948;11.600;2022-12-04T15:22:55;171.93;;;38.23;;
18881;SDS011;9573;50.948;11.600;2022-12-04T15:25:24;154.63;;;35.70;;
18881;SDS011;9573;50.948;11.600;2022-12-04T15:27:58;164.87;;;38.50;;
18881;SDS011;9573;50.948;11.600;2022-12-04T15:30:32;155.77;;;35.73;;
18881;SDS011;9573;50.948;11.600;2022-12-04T15:33:02;144.23;;;35.80;;
18881;SDS011;9573;50.948;11.600;2022-12-04T15:35:31;164.37;;;40.87;;
18881;SDS011;9573;50.948;11.600;2022-12-04T15:38:01;161.90;;;38.37;;
18881;SDS011;9573;50.948;11.600;2022-12-04T15:40:28;156.03;;;38.47;;
18881;SDS011;9573;50.948;11.600;2022-12-04T15:43:05;149.33;;;36.13;;
18881;SDS011;9573;50.948;11.600;2022-12-04T15:45:41;178.17;;;39.17;;
18881;SDS011;9573;50.948;11.600;2022-12-04T15:48:08;152.77;;;37.83;;
18881;SDS011;9573;50.948;11.600;2022-12-04T15:50:35;165.87;;;38.03;;
18881;SDS011;9573;50.948;11.600;2022-12-04T15:53:07;157.33;;;37.43;;
18881;SDS011;9573;50.948;11.600;2022-12-04T15:55:46;175.93;;;39.00;;
18881;SDS011;9573;50.948;11.600;2022-12-04T15:58:17;156.80;;;37.70;;
18881;SDS011;9573;50.948;11.600;2022-12-04T16:00:52;161.53;;;36.73;;
18881;SDS011;9573;50.948;11.600;2022-12-04T16:03:22;155.37;;;36.63;;
18881;SDS011;9573;50.948;11.600;2022-12-04T16:06:02;152.03;;;36.50;;
18881;SDS011;9573;50.948;11.600;2022-12-04T16:08:40;172.67;;;39.97;;
18881;SDS011;9573;50.948;11.600;2022-12-04T16:11:21;154.33;;;37.57;;
18881;SDS011;9573;50.948;11.600;2022-12-04T16:14:02;208.10;;;44.37;;
18881;SDS011;9573;50.948;11.600;2022-12-04T16:16:40;177.17;;;39.17;;
18881;SDS011;9573;50.948;11.600;2022-12-04T16:19:12;167.23;;;39.23;;
18881;SDS011;9573;50.948;11.600;2022-12-04T16:21:45;161.33;;;39.07;;
18881;SDS011;9573;50.948;11.600;2022-12-04T16:24:14;152.83;;;36.07;;
18881;SDS011;9573;50.948;11.600;2022-12-04T16:26:41;153.70;;;36.67;;
18881;SDS011;9573;50.948;11.600;2022-12-04T16:29:08;181.03;;;43.07;;
18881;SDS011;9573;50.948;11.600;2022-12-04T16:31:36;148.13;;;39.07;;
18881;SDS011;9573;50.948;11.600;2022-12-04T16:34:03;155.07;;;37.60;;
18881;SDS011;9573;50.948;11.600;2022-12-04T16:36:30;180.13;;;39.57;;
18881;SDS011;9573;50.948;11.600;2022-12-04T16:38:58;151.60;;;35.80;;
18881;SDS011;9573;50.948;11.600;2022-12-04T16:41:27;145.67;;;39.27;;
18881;SDS011;9573;50.948;11.600;2022-12-04T16:43:55;160.30;;;37.10;;
18881;SDS011;9573;50.948;11.600;2022-12-04T16:46:25;161.03;;;38.80;;
18881;SDS011;9573;50.948;11.600;2022-12-04T16:48:54;140.83;;;35.23;;
18881;SDS011;9573;50.948;11.600;2022-12-04T16:51:23;154.83;;;38.40;;
18881;SDS011;9573;50.948;11.600;2022-12-04T16:53:52;141.67;;;34.57;;
18881;SDS011;9573;50.948;11.600;2022-12-04T16:56:20;154.50;;;35.23;;
18881;SDS011;9573;50.948;11.600;2022-12-04T16:58:49;147.33;;;36.63;;
18881;SDS011;9573;50.948;11.600;2022-12-04T17:01:21;144.63;;;34.60;;
18881;SDS011;9573;50.948;11.600;2022-12-04T17:03:51;141.67;;;35.83;;
18881;SDS011;9573;50.948;11.600;2022-12-04T17:06:18;129.40;;;34.20;;
18881;SDS011;9573;50.948;11.600;2022-12-04T17:08:46;158.83;;;40.00;;
18881;SDS011;9573;50.948;11.600;2022-12-04T17:11:13;146.03;;;36.60;;
18881;SDS011;9573;50.948;11.600;2022-12-04T17:13:42;161.07;;;36.50;;
18881;SDS011;9573;50.948;11.600;2022-12-04T17:16:11;162.00;;;37.87;;
18881;SDS011;9573;50.948;11.600;2022-12-04T17:18:40;148.80;;;36.33;;
18881;SDS011;9573;50.948;11.600;2022-12-04T17:21:08;145.83;;;36.07;;
18881;SDS011;9573;50.948;11.600;2022-12-04T17:23:37;139.97;;;35.40;;
18881;SDS011;9573;50.948;11.600;2022-12-04T17:26:06;144.47;;;36.50;;
18881;SDS011;9573;50.948;11.600;2022-12-04T17:28:39;140.50;;;37.70;;
18881;SDS011;9573;50.948;11.600;2022-12-04T17:31:14;170.43;;;39.60;;
18881;SDS011;9573;50.948;11.600;2022-12-04T17:33:44;166.07;;;38.73;;
18881;SDS011;9573;50.948;11.600;2022-12-04T17:36:12;140.63;;;36.37;;
18881;SDS011;9573;50.948;11.600;2022-12-04T17:38:41;148.37;;;35.80;;
18881;SDS011;9573;50.948;11.600;2022-12-04T17:41:10;171.37;;;39.67;;
18881;SDS011;9573;50.948;11.600;2022-12-04T17:43:39;170.93;;;37.07;;
18881;SDS011;9573;50.948;11.600;2022-12-04T17:46:09;138.63;;;36.70;;
18881;SDS011;9573;50.948;11.600;2022-12-04T17:48:39;143.90;;;34.60;;
18881;SDS011;9573;50.948;11.600;2022-12-04T17:51:08;147.63;;;36.87;;
18881;SDS011;9573;50.948;11.600;2022-12-04T17:53:37;162.50;;;36.73;;
18881;SDS011;9573;50.948;11.600;2022-12-04T17:56:05;143.67;;;33.63;;
18881;SDS011;9573;50.948;11.600;2022-12-04T17:58:35;161.40;;;36.60;;
18881;SDS011;9573;50.948;11.600;2022-12-04T18:01:03;156.50;;;36.70;;
18881;SDS011;9573;50.948;11.600;2022-12-04T18:03:33;149.43;;;35.67;;
18881;SDS011;9573;50.948;11.600;2022-12-04T18:06:10;148.87;;;36.53;;
18881;SDS011;9573;50.948;11.600;2022-12-04T18:08:39;146.07;;;35.53;;
18881;SDS011;9573;50.948;11.600;2022-12-04T18:11:07;141.73;;;34.57;;
18881;SDS011;9573;50.948;11.600;2022-12-04T18:13:34;135.20;;;34.93;;
18881;SDS011;9573;50.948;11.600;2022-12-04T18:16:02;152.50;;;38.37;;
18881;SDS011;9573;50.948;11.600;2022-12-04T18:18:30;133.53;;;36.17;;
18881;SDS011;9573;50.948;11.600;2022-12-04T18:20:59;139.90;;;33.13;;
18881;SDS011;9573;50.948;11.600;2022-12-04T18:23:28;135.70;;;33.70;;
18881;SDS011;9573;50.948;11.600;2022-12-04T18:25:58;135.87;;;34.33;;
18881;SDS011;9573;50.948;11.600;2022-12-04T18:28:26;147.83;;;34.70;;
18881;SDS011;9573;50.948;11.600;2022-12-04T18:31:00;129.07;;;34.53;;
18881;SDS011;9573;50.948;11.600;2022-12-04T18:33:28;140.93;;;36.37;;
18881;SDS011;9573;50.948;11.600;2022-12-04T18:35:57;136.33;;;35.43;;
18881;SDS011;9573;50.948;11.600;2022-12-04T18:38:25;128.57;;;34.63;;
18881;SDS011;9573;50.948;11.600;2022-12-04T18:40:59;136.17;;;34.10;;
18881;SDS011;9573;50.948;11.600;2022-12-04T18:43:28;144.37;;;36.13;;
18881;SDS011;9573;50.948;11.600;2022-12-04T18:46:02;146.80;;;36.37;;
18881;SDS011;9573;50.948;11.600;2022-12-04T18:48:31;127.27;;;35.07;;
18881;SDS011;9573;50.948;11.600;2022-12-04T18:50:59;132.07;;;34.43;;
18881;SDS011;9573;50.948;11.600;2022-12-04T18:53:31;141.57;;;34.50;;
18881;SDS011;9573;50.948;11.600;2022-12-04T18:56:00;129.23;;;33.13;;
18881;SDS011;9573;50.948;11.600;2022-12-04T18:58:28;137.53;;;35.70;;
18881;SDS011;9573;50.948;11.600;2022-12-04T19:01:02;145.13;;;35.23;;
18881;SDS011;9573;50.948;11.600;2022-12-04T19:03:31;128.57;;;33.20;;
18881;SDS011;9573;50.948;11.600;2022-12-04T19:05:59;130.17;;;33.97;;
18881;SDS011;9573;50.948;11.600;2022-12-04T19:08:26;127.53;;;32.90;;
18881;SDS011;9573;50.948;11.600;2022-12-04T19:10:55;144.13;;;34.77;;
18881;SDS011;9573;50.948;11.600;2022-12-04T19:13:29;142.17;;;35.07;;
18881;SDS011;9573;50.948;11.600;2022-12-04T19:15:58;135.20;;;34.43;;
18881;SDS011;9573;50.948;11.600;2022-12-04T19:18:25;125.13;;;32.57;;
18881;SDS011;9573;50.948;11.600;2022-12-04T19:20:53;134.77;;;34.27;;
18881;SDS011;9573;50.948;11.600;2022-12-04T19:23:21;118.77;;;33.43;;
18881;SDS011;9573;50.948;11.600;2022-12-04T19:25:52;132.73;;;35.03;;
18881;SDS011;9573;50.948;11.600;2022-12-04T19:28:22;130.70;;;35.30;;
18881;SDS011;9573;50.948;11.600;2022-12-04T19:30:52;121.63;;;35.30;;
18881;SDS011;9573;50.948;11.600;2022-12-04T19:33:20;122.83;;;33.30;;
18881;SDS011;9573;50.948;11.600;2022-12-04T19:35:58;122.00;;;33.10;;
18881;SDS011;9573;50.948;11.600;2022-12-04T19:38:28;118.03;;;32.97;;
18881;SDS011;9573;50.948;11.600;2022-12-04T19:41:05;114.33;;;32.83;;
18881;SDS011;9573;50.948;11.600;2022-12-04T19:43:35;113.17;;;31.53;;
18881;SDS011;9573;50.948;11.600;2022-12-04T19:46:06;119.23;;;31.77;;
18881;SDS011;9573;50.948;11.600;2022-12-04T19:48:35;113.20;;;32.00;;
18881;SDS011;9573;50.948;11.600;2022-12-04T19:51:07;112.73;;;31.43;;
18881;SDS011;9573;50.948;11.600;2022-12-04T19:53:38;117.30;;;31.33;;
18881;SDS011;9573;50.948;11.600;2022-12-04T19:56:09;101.27;;;30.33;;
18881;SDS011;9573;50.948;11.600;2022-12-04T19:58:39;102.70;;;30.93;;
18881;SDS011;9573;50.948;11.600;2022-12-04T20:01:07;105.83;;;30.63;;
18881;SDS011;9573;50.948;11.600;2022-12-04T20:03:39;91.77;;;29.70;;
18881;SDS011;9573;50.948;11.600;2022-12-04T20:06:08;104.60;;;30.37;;